createdAt,value
2024-02-19T00:00:57.167Z,31.72
2024-02-19T00:01:56.887Z,31.72
2024-02-19T00:02:56.708Z,31.72
2024-02-19T00:03:56.788Z,31.72
2024-02-19T00:04:56.774Z,31.72
2024-02-19T00:05:56.737Z,31.72
2024-02-19T00:06:56.795Z,31.72
2024-02-19T00:07:56.885Z,31.72
2024-02-19T00:08:56.753Z,31.72
2024-02-19T00:09:56.772Z,31.72
2024-02-19T00:10:56.790Z,31.72
2024-02-19T00:11:56.798Z,31.72
2024-02-19T00:12:56.829Z,31.72
2024-02-19T00:13:56.778Z,31.72
2024-02-19T00:14:56.767Z,31.72
2024-02-19T00:15:56.831Z,31.72
2024-02-19T00:16:56.801Z,31.72
2024-02-19T00:17:56.864Z,31.72
2024-02-19T00:18:56.900Z,31.72
2024-02-19T00:19:56.904Z,31.72
2024-02-19T00:20:56.812Z,31.72
2024-02-19T00:21:56.862Z,31.72
2024-02-19T00:22:56.853Z,31.72
2024-02-19T00:23:56.852Z,31.72
2024-02-19T00:24:56.908Z,31.72
2024-02-19T00:25:56.904Z,31.72
2024-02-19T00:26:56.919Z,31.72
2024-02-19T00:27:56.932Z,31.72
2024-02-19T00:28:56.918Z,31.72
2024-02-19T00:29:56.937Z,31.72
2024-02-19T00:30:56.963Z,31.72
2024-02-19T00:31:56.960Z,31.72
2024-02-19T00:32:57.069Z,31.72
2024-02-19T00:33:57.069Z,31.72
2024-02-19T00:34:56.980Z,31.72
2024-02-19T00:35:57.020Z,31.72
2024-02-19T00:36:57.050Z,31.72
2024-02-19T00:37:57.032Z,31.72
2024-02-19T00:38:57.033Z,31.72
2024-02-19T00:39:57.110Z,31.72
2024-02-19T00:40:57.039Z,31.72
2024-02-19T00:41:57.060Z,31.72
2024-02-19T00:42:57.153Z,31.72
2024-02-19T00:43:57.094Z,31.72
2024-02-19T00:44:57.088Z,31.72
2024-02-19T00:45:57.135Z,31.72
2024-02-19T00:46:57.114Z,31.72
2024-02-19T00:47:57.190Z,31.72
2024-02-19T00:48:57.225Z,31.72
2024-02-19T00:49:57.381Z,31.72
2024-02-19T00:50:57.142Z,31.72
2024-02-19T00:51:57.221Z,31.72
2024-02-19T00:52:57.175Z,31.72
2024-02-19T00:53:57.199Z,31.72
2024-02-19T00:54:57.223Z,31.72
2024-02-19T00:55:57.203Z,31.72
2024-02-19T00:56:57.219Z,31.72
2024-02-19T00:57:57.262Z,31.72
2024-02-19T00:58:57.248Z,31.72
2024-02-19T00:59:57.266Z,31.72
2024-02-19T01:00:57.333Z,31.72
2024-02-19T01:01:57.295Z,31.72
2024-02-19T01:02:57.295Z,31.72
2024-02-19T01:03:57.406Z,31.72
2024-02-19T01:04:57.362Z,31.72
2024-02-19T01:05:57.320Z,31.72
2024-02-19T01:06:57.568Z,31.72
2024-02-19T01:07:57.286Z,31.72
2024-02-19T01:08:57.289Z,31.72
2024-02-19T01:09:57.407Z,31.72
2024-02-19T01:10:57.335Z,31.72
2024-02-19T01:11:57.326Z,31.72
2024-02-19T01:12:57.362Z,31.72
2024-02-19T01:13:57.340Z,31.72
2024-02-19T01:14:57.338Z,31.72
2024-02-19T01:15:57.404Z,31.72
2024-02-19T01:16:57.345Z,31.72
2024-02-19T01:17:57.371Z,31.72
2024-02-19T01:18:57.420Z,31.72
2024-02-19T01:19:57.462Z,31.72
2024-02-19T01:20:57.350Z,31.72
2024-02-19T01:21:57.423Z,31.72
2024-02-19T01:22:57.358Z,31.72
2024-02-19T01:23:57.365Z,31.72
2024-02-19T01:24:57.397Z,31.72
2024-02-19T01:25:57.384Z,31.72
2024-02-19T01:26:57.394Z,31.72
2024-02-19T01:27:57.447Z,31.72
2024-02-19T01:28:57.431Z,31.72
2024-02-19T01:29:57.451Z,31.72
2024-02-19T01:30:57.496Z,31.72
2024-02-19T01:31:57.465Z,31.72
2024-02-19T01:32:57.556Z,31.72
2024-02-19T01:33:57.510Z,31.72
2024-02-19T01:34:57.591Z,31.72
2024-02-19T01:35:57.481Z,31.72
2024-02-19T01:36:57.551Z,31.72
2024-02-19T01:37:57.535Z,31.72
2024-02-19T01:38:57.529Z,31.72
2024-02-19T01:39:57.557Z,31.72
2024-02-19T01:40:57.557Z,31.72
2024-02-19T01:41:57.602Z,31.72
2024-02-19T01:42:57.607Z,31.72
2024-02-19T01:43:57.628Z,31.72
2024-02-19T01:44:57.656Z,31.72
2024-02-19T01:45:57.658Z,31.72
2024-02-19T01:46:57.642Z,31.72
2024-02-19T01:47:57.744Z,31.72
2024-02-19T01:48:57.729Z,31.72
2024-02-19T01:49:57.688Z,31.72
2024-02-19T01:50:57.677Z,31.72
2024-02-19T01:51:57.779Z,31.72
2024-02-19T01:52:57.740Z,31.72
2024-02-19T01:53:57.792Z,31.72
2024-02-19T01:54:57.773Z,31.72
2024-02-19T01:55:57.780Z,31.72
2024-02-19T01:56:57.789Z,31.72
2024-02-19T01:57:57.888Z,31.72
2024-02-19T01:58:57.808Z,31.72
2024-02-19T01:59:57.813Z,31.72
2024-02-19T02:00:57.889Z,31.72
2024-02-19T02:01:57.898Z,31.72
2024-02-19T02:02:57.876Z,31.72
2024-02-19T02:03:57.933Z,31.72
2024-02-19T02:04:57.875Z,31.72
2024-02-19T02:07:19.936Z,31.72
2024-02-19T02:07:57.894Z,31.72
2024-02-19T02:08:57.903Z,31.72
2024-02-19T02:09:57.900Z,31.72
2024-02-19T02:10:57.929Z,31.72
2024-02-19T02:11:57.904Z,31.72
2024-02-19T02:12:57.923Z,31.72
2024-02-19T02:13:58.561Z,31.72
2024-02-19T02:14:57.888Z,31.72
2024-02-19T02:15:57.957Z,31.72
2024-02-19T02:16:57.910Z,31.72
2024-02-19T02:17:57.976Z,31.72
2024-02-19T02:18:58.083Z,31.72
2024-02-19T02:19:58.075Z,31.72
2024-02-19T02:20:57.913Z,31.72
2024-02-19T02:21:57.914Z,31.72
2024-02-19T02:22:57.916Z,31.72
2024-02-19T02:23:57.927Z,31.72
2024-02-19T02:24:57.940Z,31.72
2024-02-19T02:25:57.920Z,31.72
2024-02-19T02:26:57.916Z,31.72
2024-02-19T02:27:57.953Z,31.72
2024-02-19T02:28:57.925Z,31.72
2024-02-19T02:29:57.923Z,31.72
2024-02-19T02:30:57.961Z,31.72
2024-02-19T02:31:57.935Z,31.72
2024-02-19T02:32:57.991Z,31.72
2024-02-19T02:33:58.021Z,31.72
2024-02-19T02:34:58.091Z,31.72
2024-02-19T02:35:57.934Z,31.72
2024-02-19T02:36:58.010Z,31.72
2024-02-19T02:37:57.955Z,31.72
2024-02-19T02:38:57.939Z,31.72
2024-02-19T02:39:57.956Z,31.72
2024-02-19T02:40:57.940Z,31.72
2024-02-19T02:41:57.944Z,31.72
2024-02-19T02:42:57.990Z,31.72
2024-02-19T02:43:57.944Z,31.72
2024-02-19T02:44:57.957Z,31.72
2024-02-19T02:45:57.979Z,31.72
2024-02-19T02:46:57.948Z,31.72
2024-02-19T02:47:58.041Z,31.72
2024-02-19T02:48:58.121Z,31.72
2024-02-19T02:49:58.018Z,31.72
2024-02-19T02:50:57.966Z,31.72
2024-02-19T02:51:58.032Z,31.72
2024-02-19T02:52:57.970Z,31.72
2024-02-19T02:53:57.993Z,31.72
2024-02-19T02:54:57.984Z,31.72
2024-02-19T02:55:57.960Z,31.72
2024-02-19T02:56:57.967Z,31.72
2024-02-19T02:57:58.008Z,31.72
2024-02-19T02:58:57.968Z,31.72
2024-02-19T02:59:57.959Z,31.72
2024-02-19T03:00:58.080Z,31.72
2024-02-19T03:01:58.020Z,31.72
2024-02-19T03:02:57.990Z,31.72
2024-02-19T03:03:58.043Z,31.72
2024-02-19T03:04:58.122Z,31.72
2024-02-19T03:05:57.982Z,31.72
2024-02-19T03:06:58.048Z,31.72
2024-02-19T03:07:58.042Z,31.72
2024-02-19T03:08:58.066Z,31.72
2024-02-19T03:09:58.055Z,31.72
2024-02-19T03:10:58.014Z,31.72
2024-02-19T03:11:57.992Z,31.72
2024-02-19T03:12:58.023Z,31.72
2024-02-19T03:13:57.994Z,31.72
2024-02-19T03:14:58.012Z,31.72
2024-02-19T03:15:58.051Z,31.72
2024-02-19T03:16:57.997Z,31.72
2024-02-19T03:17:58.032Z,31.72
2024-02-19T03:18:58.087Z,31.72
2024-02-19T03:19:58.097Z,31.72
2024-02-19T03:20:58.016Z,31.72
2024-02-19T03:21:58.062Z,31.72
2024-02-19T03:22:58.034Z,31.72
2024-02-19T03:23:58.024Z,31.72
2024-02-19T03:24:58.022Z,31.72
2024-02-19T03:25:58.017Z,31.72
2024-02-19T03:26:58.031Z,31.72
2024-02-19T03:27:58.060Z,31.72
2024-02-19T03:28:58.035Z,31.72
2024-02-19T03:29:58.040Z,31.72
2024-02-19T03:30:58.083Z,31.72
2024-02-19T03:31:58.036Z,31.72
2024-02-19T03:32:58.105Z,31.72
2024-02-19T03:33:58.080Z,31.72
2024-02-19T03:34:58.056Z,31.72
2024-02-19T03:35:58.041Z,31.72
2024-02-19T03:36:58.069Z,31.72
2024-02-19T03:37:58.045Z,31.72
2024-02-19T03:38:58.044Z,31.72
2024-02-19T03:39:58.069Z,31.72
2024-02-19T03:40:58.056Z,31.72
2024-02-19T03:41:58.050Z,31.72
2024-02-19T03:42:58.080Z,31.72
2024-02-19T03:43:58.045Z,31.72
2024-02-19T03:44:58.052Z,31.72
2024-02-19T03:45:58.065Z,31.72
2024-02-19T03:47:00.824Z,31.72
2024-02-19T03:47:58.101Z,31.72
2024-02-19T03:48:58.327Z,31.72
2024-02-19T03:49:58.099Z,31.72
2024-02-19T03:50:58.059Z,31.72
2024-02-19T03:51:58.116Z,31.72
2024-02-19T03:52:58.061Z,31.72
2024-02-19T03:53:58.090Z,31.72
2024-02-19T03:54:58.069Z,31.72
2024-02-19T03:55:58.059Z,31.72
2024-02-19T03:56:58.069Z,31.72
2024-02-19T03:57:58.075Z,31.72
2024-02-19T03:58:58.074Z,31.72
2024-02-19T03:59:58.070Z,31.72
2024-02-19T04:00:58.093Z,31.72
2024-02-19T04:01:58.095Z,31.72
2024-02-19T04:02:58.067Z,31.72
2024-02-19T04:03:58.178Z,31.72
2024-02-19T04:04:58.156Z,31.72
2024-02-19T04:05:58.111Z,31.72
2024-02-19T04:06:58.152Z,31.72
2024-02-19T04:07:58.078Z,31.72
2024-02-19T04:08:58.088Z,31.72
2024-02-19T04:09:58.110Z,31.72
2024-02-19T04:10:58.091Z,31.72
2024-02-19T04:11:58.123Z,31.72
2024-02-19T04:12:58.185Z,31.72
2024-02-19T04:13:58.084Z,31.72
2024-02-19T04:14:58.097Z,31.72
2024-02-19T04:15:58.200Z,31.72
2024-02-19T04:16:58.094Z,31.72
2024-02-19T04:17:58.147Z,31.72
2024-02-19T04:18:58.251Z,31.72
2024-02-19T04:19:58.212Z,31.72
2024-02-19T04:20:58.129Z,31.72
2024-02-19T04:21:58.117Z,31.72
2024-02-19T04:22:58.109Z,31.72
2024-02-19T04:23:58.095Z,31.72
2024-02-19T04:24:58.122Z,31.72
2024-02-19T04:25:58.101Z,31.72
2024-02-19T04:26:58.116Z,31.72
2024-02-19T04:27:58.131Z,31.72
2024-02-19T04:28:58.116Z,31.72
2024-02-19T04:29:58.097Z,31.72
2024-02-19T04:30:58.131Z,31.72
2024-02-19T04:31:58.112Z,31.72
2024-02-19T04:32:58.195Z,31.72
2024-02-19T04:33:58.353Z,31.72
2024-02-19T04:34:58.159Z,31.72
2024-02-19T04:35:58.165Z,31.72
2024-02-19T04:36:58.175Z,31.72
2024-02-19T04:37:58.144Z,31.72
2024-02-19T04:38:58.154Z,31.72
2024-02-19T04:39:58.172Z,31.72
2024-02-19T04:40:58.162Z,31.72
2024-02-19T04:42:05.412Z,30.52
2024-02-19T04:43:05.485Z,30.48
2024-02-19T04:44:05.437Z,30.56
2024-02-19T04:45:05.406Z,30.66
2024-02-19T04:46:05.442Z,30.58
2024-02-19T04:47:05.411Z,30.71
2024-02-19T04:48:05.514Z,30.73
2024-02-19T04:49:05.517Z,30.74
2024-02-19T04:50:05.476Z,30.68
2024-02-19T04:51:05.422Z,30.73
2024-02-19T04:52:05.465Z,30.75
2024-02-19T04:53:05.420Z,30.71
2024-02-19T04:54:05.448Z,30.71
2024-02-19T04:55:05.491Z,30.73
2024-02-19T04:56:05.423Z,30.72
2024-02-19T04:57:05.430Z,30.73
2024-02-19T04:58:05.465Z,30.77
2024-02-19T04:59:05.432Z,30.74
2024-02-19T05:00:05.472Z,30.81
2024-02-19T05:01:05.531Z,30.80
2024-02-19T05:02:05.525Z,30.78
2024-02-19T05:03:05.437Z,30.83
2024-02-19T05:04:05.546Z,30.78
2024-02-19T05:05:05.497Z,30.83
2024-02-19T05:06:05.459Z,30.88
2024-02-19T05:07:05.500Z,30.85
2024-02-19T05:08:05.545Z,30.84
2024-02-19T05:09:05.589Z,30.83
2024-02-19T05:10:05.787Z,30.84
2024-02-19T05:11:05.726Z,30.85
2024-02-19T05:12:05.755Z,30.85
2024-02-19T05:13:05.836Z,30.87
2024-02-19T05:14:05.867Z,30.83
2024-02-19T05:15:05.925Z,30.81
2024-02-19T05:16:06.048Z,30.85
2024-02-19T05:17:06.035Z,30.85
2024-02-19T05:18:06.202Z,30.83
2024-02-19T05:19:06.243Z,30.77
2024-02-19T05:20:06.257Z,30.83
2024-02-19T05:21:06.285Z,30.88
2024-02-19T05:22:06.354Z,30.84
2024-02-19T05:23:06.408Z,30.84
2024-02-19T05:24:06.465Z,30.83
2024-02-19T05:25:06.554Z,30.80
2024-02-19T05:26:09.691Z,30.85
2024-02-19T05:27:06.603Z,30.87
2024-02-19T05:28:06.617Z,30.87
2024-02-19T05:29:06.587Z,30.85
2024-02-19T05:30:06.600Z,30.85
2024-02-19T05:31:06.651Z,30.88
2024-02-19T05:32:06.606Z,30.88
2024-02-19T05:33:06.720Z,30.85
2024-02-19T05:34:06.619Z,30.88
2024-02-19T05:35:06.618Z,30.90
2024-02-19T05:36:06.590Z,30.88
2024-02-19T05:37:06.596Z,30.91
2024-02-19T05:38:06.613Z,30.91
2024-02-19T05:39:06.591Z,30.88
2024-02-19T05:40:06.624Z,30.96
2024-02-19T05:41:06.603Z,30.88
2024-02-19T05:42:06.612Z,30.93
2024-02-19T05:43:06.642Z,30.88
2024-02-19T05:44:06.591Z,30.86
2024-02-19T05:45:06.600Z,30.84
2024-02-19T05:46:06.610Z,30.83
2024-02-19T05:47:06.597Z,30.80
2024-02-19T05:48:06.691Z,30.89
2024-02-19T05:49:06.744Z,30.86
2024-02-19T05:50:06.734Z,30.81
2024-02-19T05:51:06.610Z,30.79
2024-02-19T05:52:06.672Z,30.84
2024-02-19T05:53:06.668Z,30.83
2024-02-19T05:54:06.613Z,30.83
2024-02-19T05:55:06.670Z,30.83
2024-02-19T05:56:06.601Z,30.83
2024-02-19T05:57:06.610Z,30.88
2024-02-19T05:58:06.619Z,30.86
2024-02-19T05:59:06.624Z,30.84
2024-02-19T06:00:06.691Z,30.84
2024-02-19T06:01:06.831Z,30.89
2024-02-19T06:02:06.901Z,30.87
2024-02-19T06:03:06.877Z,30.83
2024-02-19T06:04:06.993Z,30.84
2024-02-19T06:05:07.701Z,30.83
2024-02-19T06:06:07.111Z,30.83
2024-02-19T06:07:07.192Z,30.90
2024-02-19T06:08:07.242Z,30.82
2024-02-19T06:09:07.253Z,30.85
2024-02-19T06:10:07.435Z,30.88
2024-02-19T06:11:07.463Z,30.92
2024-02-19T06:12:07.465Z,30.88
2024-02-19T06:13:07.543Z,30.92
2024-02-19T06:14:07.657Z,30.83
2024-02-19T06:15:07.705Z,30.87
2024-02-19T06:16:07.848Z,30.89
2024-02-19T06:17:07.788Z,30.87
2024-02-19T06:18:07.919Z,30.90
2024-02-19T06:19:07.977Z,30.86
2024-02-19T06:20:08.038Z,30.86
2024-02-19T06:21:08.068Z,30.85
2024-02-19T06:22:08.175Z,30.89
2024-02-19T06:23:08.208Z,30.83
2024-02-19T06:24:08.235Z,30.89
2024-02-19T06:25:08.332Z,30.85
2024-02-19T06:26:08.382Z,30.86
2024-02-19T06:27:08.415Z,30.88
2024-02-19T06:28:08.497Z,30.88
2024-02-19T06:29:10.664Z,30.86
2024-02-19T06:30:08.580Z,30.82
2024-02-19T06:31:08.621Z,30.88
2024-02-19T06:32:08.556Z,30.82
2024-02-19T06:33:08.707Z,30.85
2024-02-19T06:34:08.643Z,30.85
2024-02-19T06:35:08.685Z,30.81
2024-02-19T06:36:08.701Z,30.81
2024-02-19T06:37:09.803Z,31.29
2024-02-19T06:38:08.593Z,31.34
2024-02-19T06:39:08.630Z,31.77
2024-02-19T06:40:08.695Z,32.37
2024-02-19T06:41:08.598Z,32.88
2024-02-19T06:42:08.608Z,33.12
2024-02-19T06:43:08.670Z,33.48
2024-02-19T06:44:08.599Z,34.05
2024-02-19T06:45:08.578Z,34.18
2024-02-19T06:46:08.633Z,34.30
2024-02-19T06:47:08.605Z,34.44
2024-02-19T06:48:09.200Z,34.79
2024-02-19T06:49:08.792Z,34.76
2024-02-19T06:50:08.680Z,34.85
2024-02-19T06:51:09.691Z,35.13
2024-02-19T06:52:08.663Z,35.32
2024-02-19T06:53:08.676Z,35.57
2024-02-19T06:54:08.673Z,35.95
2024-02-19T06:55:10.694Z,35.85
2024-02-19T06:56:08.702Z,36.00
2024-02-19T06:57:08.694Z,36.26
2024-02-19T06:58:08.698Z,36.20
2024-02-19T06:59:08.697Z,36.36
2024-02-19T07:00:08.766Z,36.48
2024-02-19T07:01:08.808Z,36.59
2024-02-19T07:02:08.909Z,36.74
2024-02-19T07:03:09.167Z,36.86
2024-02-19T07:04:08.733Z,36.94
2024-02-19T07:05:09.516Z,37.00
2024-02-19T07:06:08.731Z,37.20
2024-02-19T07:07:09.708Z,37.28
2024-02-19T07:08:08.721Z,37.44
2024-02-19T07:09:09.166Z,37.55
2024-02-19T07:10:09.792Z,37.52
2024-02-19T07:11:08.817Z,37.65
2024-02-19T07:12:08.796Z,37.79
2024-02-19T07:13:09.807Z,37.89
2024-02-19T07:14:08.838Z,38.00
2024-02-19T07:15:08.835Z,38.13
2024-02-19T07:16:08.878Z,38.16
2024-02-19T07:17:08.859Z,38.23
2024-02-19T07:18:10.672Z,38.26
2024-02-19T07:19:09.800Z,38.57
2024-02-19T07:20:09.019Z,38.66
2024-02-19T07:21:08.910Z,38.78
2024-02-19T07:22:09.002Z,38.88
2024-02-19T07:23:09.146Z,39.03
2024-02-19T07:24:08.843Z,39.08
2024-02-19T07:25:16.604Z,39.22
2024-02-19T07:26:09.922Z,39.13
2024-02-19T07:27:08.822Z,39.31
2024-02-19T07:28:08.939Z,39.25
2024-02-19T07:29:08.862Z,39.35
2024-02-19T07:30:08.837Z,39.47
2024-02-19T07:31:08.878Z,39.71
2024-02-19T07:32:08.841Z,39.80
2024-02-19T07:33:09.363Z,39.86
2024-02-19T07:34:09.251Z,40.15
2024-02-19T07:35:09.025Z,40.13
2024-02-19T07:36:08.845Z,40.20
2024-02-19T07:37:08.860Z,40.16
2024-02-19T07:38:09.087Z,39.95
2024-02-19T07:39:09.106Z,39.66
2024-02-19T07:40:09.610Z,39.30
2024-02-19T07:41:08.860Z,39.17
2024-02-19T07:42:08.923Z,38.90
2024-02-19T07:43:08.944Z,38.71
2024-02-19T07:44:08.866Z,38.19
2024-02-19T07:45:08.859Z,37.89
2024-02-19T07:46:08.866Z,37.49
2024-02-19T07:47:09.004Z,37.25
2024-02-19T07:48:09.045Z,37.21
2024-02-19T07:49:09.258Z,36.95
2024-02-19T07:50:09.183Z,36.45
2024-02-19T07:51:09.118Z,36.09
2024-02-19T07:52:09.148Z,36.20
2024-02-19T07:53:09.066Z,35.98
2024-02-19T07:54:09.136Z,35.74
2024-02-19T07:55:09.125Z,35.85
2024-02-19T07:56:09.089Z,35.64
2024-02-19T07:57:09.081Z,35.56
2024-02-19T07:58:09.105Z,35.56
2024-02-19T07:59:09.101Z,35.38
2024-02-19T08:00:09.068Z,35.35
2024-02-19T08:01:09.279Z,35.24
2024-02-19T08:02:09.268Z,35.22
2024-02-19T08:03:09.109Z,35.13
2024-02-19T08:04:09.181Z,35.01
2024-02-19T08:05:09.312Z,35.08
2024-02-19T08:06:10.094Z,35.05
2024-02-19T08:07:09.292Z,35.00
2024-02-19T08:08:09.205Z,34.91
2024-02-19T08:09:09.262Z,34.76
2024-02-19T08:10:09.379Z,34.68
2024-02-19T08:11:09.335Z,34.62
2024-02-19T08:12:09.445Z,34.60
2024-02-19T08:13:09.557Z,34.38
2024-02-19T08:14:09.550Z,34.18
2024-02-19T08:15:09.499Z,34.07
2024-02-19T08:16:09.561Z,33.99
2024-02-19T08:17:09.588Z,34.10
2024-02-19T08:18:09.715Z,34.12
2024-02-19T08:19:09.791Z,34.07
2024-02-19T08:20:09.756Z,34.47
2024-02-19T08:21:09.779Z,33.99
2024-02-19T08:22:09.802Z,34.06
2024-02-19T08:23:09.863Z,34.09
2024-02-19T08:24:09.860Z,34.07
2024-02-19T08:25:09.941Z,34.05
2024-02-19T08:26:09.920Z,34.03
2024-02-19T08:27:09.967Z,33.87
2024-02-19T08:28:10.041Z,33.81
2024-02-19T08:29:10.028Z,33.76
2024-02-19T08:30:10.083Z,33.79
2024-02-19T08:31:10.145Z,33.77
2024-02-19T08:32:11.108Z,33.82
2024-02-19T08:33:10.213Z,33.79
2024-02-19T08:34:10.434Z,33.97
2024-02-19T08:35:10.472Z,33.66
2024-02-19T08:36:10.337Z,33.72
2024-02-19T08:37:10.512Z,33.94
2024-02-19T08:38:10.646Z,33.95
2024-02-19T08:39:10.738Z,34.11
2024-02-19T08:40:10.645Z,34.25
2024-02-19T08:41:10.621Z,34.28
2024-02-19T08:42:10.682Z,34.52
2024-02-19T08:43:10.767Z,35.05
2024-02-19T08:44:10.763Z,35.21
2024-02-19T08:45:10.788Z,35.51
2024-02-19T08:46:10.837Z,35.64
2024-02-19T08:47:10.840Z,35.75
2024-02-19T08:48:10.831Z,35.83
2024-02-19T08:49:11.393Z,36.04
2024-02-19T08:50:10.882Z,36.14
2024-02-19T08:51:10.780Z,36.25
2024-02-19T08:52:10.769Z,36.38
2024-02-19T08:53:11.159Z,36.54
2024-02-19T08:54:10.782Z,36.84
2024-02-19T08:55:10.806Z,37.19
2024-02-19T08:56:10.715Z,37.10
2024-02-19T08:57:10.742Z,37.03
2024-02-19T08:58:10.809Z,37.29
2024-02-19T08:59:10.740Z,37.26
2024-02-19T09:00:11.632Z,37.49
2024-02-19T09:01:10.805Z,37.72
2024-02-19T09:02:10.780Z,37.61
2024-02-19T09:03:10.821Z,37.60
2024-02-19T09:04:10.798Z,37.57
2024-02-19T09:05:10.830Z,37.45
2024-02-19T09:06:10.824Z,37.35
2024-02-19T09:07:10.798Z,37.20
2024-02-19T09:08:10.806Z,37.15
2024-02-19T09:09:10.733Z,36.90
2024-02-19T09:10:11.421Z,36.82
2024-02-19T09:11:10.791Z,36.43
2024-02-19T09:12:10.778Z,36.42
2024-02-19T09:13:10.789Z,36.35
2024-02-19T09:14:11.166Z,36.32
2024-02-19T09:15:10.749Z,36.36
2024-02-19T09:16:10.814Z,36.47
2024-02-19T09:17:10.817Z,36.22
2024-02-19T09:18:10.914Z,36.34
2024-02-19T09:19:10.896Z,36.24
2024-02-19T09:20:10.897Z,36.24
2024-02-19T09:21:10.873Z,36.43
2024-02-19T09:22:10.888Z,36.50
2024-02-19T09:23:10.855Z,36.38
2024-02-19T09:24:10.862Z,36.20
2024-02-19T09:25:10.936Z,35.87
2024-02-19T09:26:10.896Z,35.76
2024-02-19T09:27:10.959Z,35.68
2024-02-19T09:28:10.979Z,35.56
2024-02-19T09:29:11.195Z,35.43
2024-02-19T09:30:10.963Z,35.33
2024-02-19T09:31:11.067Z,35.32
2024-02-19T09:32:11.020Z,35.21
2024-02-19T09:33:11.146Z,35.16
2024-02-19T09:34:11.178Z,35.06
2024-02-19T09:35:11.196Z,35.05
2024-02-19T09:36:11.095Z,34.95
2024-02-19T09:37:11.089Z,34.88
2024-02-19T09:38:11.063Z,34.73
2024-02-19T09:39:11.196Z,34.54
2024-02-19T09:40:11.129Z,34.56
2024-02-19T09:41:11.064Z,34.51
2024-02-19T09:42:11.091Z,34.44
2024-02-19T09:43:11.130Z,34.46
2024-02-19T09:44:11.194Z,34.47
2024-02-19T09:45:11.107Z,34.77
2024-02-19T09:46:11.116Z,34.93
2024-02-19T09:47:11.099Z,35.09
2024-02-19T09:48:11.303Z,35.22
2024-02-19T09:49:11.270Z,35.19
2024-02-19T09:50:11.339Z,35.21
2024-02-19T09:51:14.356Z,35.03
2024-02-19T09:52:12.375Z,35.09
2024-02-19T09:53:11.332Z,35.41
2024-02-19T09:54:11.320Z,35.28
2024-02-19T09:55:11.402Z,35.56
2024-02-19T09:56:11.342Z,35.68
2024-02-19T09:57:11.383Z,35.42
2024-02-19T09:58:11.344Z,35.21
2024-02-19T09:59:11.329Z,35.30
2024-02-19T10:00:11.366Z,35.15
2024-02-19T10:01:11.538Z,35.31
2024-02-19T10:02:11.559Z,35.48
2024-02-19T10:03:11.556Z,35.26
2024-02-19T10:04:11.711Z,35.22
2024-02-19T10:05:11.826Z,35.31
2024-02-19T10:06:11.874Z,35.22
2024-02-19T10:07:11.909Z,35.21
2024-02-19T10:08:11.899Z,35.28
2024-02-19T10:09:11.938Z,35.12
2024-02-19T10:10:12.046Z,34.94
2024-02-19T10:11:12.152Z,35.40
2024-02-19T10:12:12.148Z,35.30
2024-02-19T10:13:12.233Z,35.28
2024-02-19T10:14:12.280Z,35.48
2024-02-19T10:15:12.335Z,35.33
2024-02-19T10:16:12.529Z,35.29
2024-02-19T10:17:12.466Z,35.34
2024-02-19T10:18:12.632Z,35.47
2024-02-19T10:19:12.881Z,35.38
2024-02-19T10:20:12.607Z,35.47
2024-02-19T10:21:12.670Z,35.50
2024-02-19T10:22:12.713Z,35.28
2024-02-19T10:23:12.740Z,34.96
2024-02-19T10:24:13.200Z,35.01
2024-02-19T10:25:12.961Z,34.95
2024-02-19T10:26:12.917Z,34.77
2024-02-19T10:27:12.959Z,34.81
2024-02-19T10:28:13.069Z,34.52
2024-02-19T10:29:13.203Z,34.54
2024-02-19T10:30:13.140Z,34.52
2024-02-19T10:31:13.246Z,34.43
2024-02-19T10:32:13.255Z,34.30
2024-02-19T10:33:13.741Z,34.40
2024-02-19T10:34:13.547Z,34.41
2024-02-19T10:35:13.517Z,34.46
2024-02-19T10:36:13.541Z,34.50
2024-02-19T10:37:13.654Z,34.38
2024-02-19T10:38:13.670Z,34.47
2024-02-19T10:39:14.164Z,34.53
2024-02-19T10:40:13.873Z,34.49
2024-02-19T10:41:13.787Z,34.41
2024-02-19T10:42:14.686Z,34.30
2024-02-19T10:43:13.902Z,34.17
2024-02-19T10:44:14.175Z,33.91
2024-02-19T10:45:13.834Z,33.83
2024-02-19T10:46:13.853Z,33.74
2024-02-19T10:47:13.840Z,33.68
2024-02-19T10:48:13.917Z,33.61
2024-02-19T10:49:14.256Z,33.58
2024-02-19T10:50:14.131Z,33.10
2024-02-19T10:51:13.942Z,33.43
2024-02-19T10:52:14.022Z,33.47
2024-02-19T10:53:14.001Z,33.45
2024-02-19T10:54:14.033Z,33.25
2024-02-19T10:55:17.164Z,33.35
2024-02-19T10:56:15.080Z,33.54
2024-02-19T10:57:14.061Z,33.67
2024-02-19T10:58:14.123Z,33.76
2024-02-19T10:59:14.064Z,33.95
2024-02-19T11:00:14.069Z,33.96
2024-02-19T11:01:14.184Z,34.00
2024-02-19T11:02:14.733Z,34.06
2024-02-19T11:03:14.103Z,34.16
2024-02-19T11:04:14.242Z,34.28
2024-02-19T11:05:14.076Z,34.37
2024-02-19T11:06:14.124Z,34.37
2024-02-19T11:07:14.078Z,34.57
2024-02-19T11:08:14.066Z,34.67
2024-02-19T11:09:14.074Z,34.84
2024-02-19T11:10:14.296Z,34.92
2024-02-19T11:11:14.182Z,34.90
2024-02-19T11:12:14.082Z,35.09
2024-02-19T11:13:14.122Z,35.13
2024-02-19T11:14:14.126Z,35.19
2024-02-19T11:15:14.155Z,35.31
2024-02-19T11:16:14.240Z,35.23
2024-02-19T11:17:14.237Z,35.22
2024-02-19T11:18:14.295Z,35.21
2024-02-19T11:19:14.368Z,35.20
2024-02-19T11:20:14.318Z,35.25
2024-02-19T11:21:14.315Z,35.32
2024-02-19T11:22:14.382Z,35.38
2024-02-19T11:23:14.358Z,35.32
2024-02-19T11:24:15.716Z,35.28
2024-02-19T11:25:15.202Z,35.30
2024-02-19T11:26:14.479Z,35.28
2024-02-19T11:27:14.506Z,35.39
2024-02-19T11:28:14.495Z,35.26
2024-02-19T11:29:14.501Z,34.95
2024-02-19T11:30:14.486Z,34.99
2024-02-19T11:31:14.552Z,34.55
2024-02-19T11:32:14.516Z,34.39
2024-02-19T11:33:14.550Z,34.17
2024-02-19T11:34:14.759Z,34.21
2024-02-19T11:35:14.608Z,34.34
2024-02-19T11:36:14.532Z,34.40
2024-02-19T11:37:14.570Z,34.47
2024-02-19T11:38:14.604Z,34.53
2024-02-19T11:39:14.637Z,34.51
2024-02-19T11:40:14.754Z,34.71
2024-02-19T11:41:14.769Z,34.92
2024-02-19T11:42:14.818Z,35.01
2024-02-19T11:43:14.913Z,35.18
2024-02-19T11:44:14.966Z,35.33
2024-02-19T11:45:15.225Z,35.57
2024-02-19T11:46:15.118Z,35.69
2024-02-19T11:47:15.967Z,35.75
2024-02-19T11:48:15.313Z,35.91
2024-02-19T11:49:15.350Z,35.92
2024-02-19T11:50:15.481Z,36.05
2024-02-19T11:51:15.463Z,36.13
2024-02-19T11:52:15.842Z,36.27
2024-02-19T11:53:15.575Z,36.34
2024-02-19T11:54:15.649Z,36.34
2024-02-19T11:55:15.748Z,36.41
2024-02-19T11:56:15.770Z,36.48
2024-02-19T11:57:15.887Z,36.57
2024-02-19T11:58:15.914Z,36.64
2024-02-19T11:59:15.964Z,36.74
2024-02-19T12:00:16.017Z,36.83
2024-02-19T12:01:16.185Z,36.90
2024-02-19T12:02:16.252Z,36.92
2024-02-19T12:03:16.209Z,37.04
2024-02-19T12:04:16.401Z,37.01
2024-02-19T12:05:16.373Z,36.99
2024-02-19T12:06:16.496Z,37.05
2024-02-19T12:07:16.551Z,37.08
2024-02-19T12:08:16.553Z,37.12
2024-02-19T12:09:16.595Z,36.93
2024-02-19T12:10:16.691Z,37.07
2024-02-19T12:11:17.045Z,36.98
2024-02-19T12:12:16.763Z,37.03
2024-02-19T12:13:16.924Z,37.07
2024-02-19T12:14:16.934Z,37.05
2024-02-19T12:15:16.948Z,37.16
2024-02-19T12:16:17.057Z,36.96
2024-02-19T12:17:17.093Z,36.44
2024-02-19T12:18:17.294Z,36.05
2024-02-19T12:19:17.770Z,36.26
2024-02-19T12:20:17.409Z,36.07
2024-02-19T12:21:17.361Z,35.89
2024-02-19T12:22:17.459Z,35.74
2024-02-19T12:23:17.461Z,35.60
2024-02-19T12:24:17.818Z,35.58
2024-02-19T12:25:17.645Z,35.49
2024-02-19T12:26:17.631Z,35.38
2024-02-19T12:27:17.726Z,35.34
2024-02-19T12:28:17.837Z,35.34
2024-02-19T12:29:17.861Z,35.33
2024-02-19T12:30:17.913Z,35.26
2024-02-19T12:31:18.034Z,35.28
2024-02-19T12:32:18.047Z,35.20
2024-02-19T12:33:18.205Z,35.16
2024-02-19T12:34:18.300Z,35.12
2024-02-19T12:35:18.397Z,35.13
2024-02-19T12:36:18.423Z,35.17
2024-02-19T12:37:18.413Z,35.05
2024-02-19T12:38:18.457Z,35.05
2024-02-19T12:39:18.563Z,35.04
2024-02-19T12:40:18.662Z,35.00
2024-02-19T12:41:18.658Z,34.95
2024-02-19T12:42:18.728Z,34.92
2024-02-19T12:43:18.862Z,34.97
2024-02-19T12:44:18.873Z,34.94
2024-02-19T12:45:19.031Z,34.89
2024-02-19T12:46:19.127Z,34.93
2024-02-19T12:47:19.088Z,34.85
2024-02-19T12:48:19.267Z,34.85
2024-02-19T12:49:19.993Z,34.81
2024-02-19T12:50:19.344Z,34.80
2024-02-19T12:51:19.391Z,34.82
2024-02-19T12:52:19.498Z,34.81
2024-02-19T12:53:19.497Z,34.88
2024-02-19T12:54:19.596Z,34.80